createdAt,value
2022-12-07T00:01:28.265Z,12.97
2022-12-07T00:04:02.471Z,14.20
2022-12-07T00:06:29.190Z,13.53
2022-12-07T00:08:55.881Z,14.63
2022-12-07T00:11:23.746Z,13.23
2022-12-07T00:13:56.468Z,13.53
2022-12-07T00:16:25.464Z,13.40
2022-12-07T00:18:52.175Z,13.63
2022-12-07T00:21:27.324Z,14.47
2022-12-07T00:23:55.470Z,14.10
2022-12-07T00:26:26.553Z,14.77
2022-12-07T00:28:58.997Z,12.97
2022-12-07T00:31:30.683Z,12.67
2022-12-07T00:33:59.322Z,13.70
2022-12-07T00:36:27.718Z,15.20
2022-12-07T00:39:00.328Z,14.23
2022-12-07T00:41:28.692Z,14.00
2022-12-07T00:43:56.278Z,13.70
2022-12-07T00:46:24.456Z,14.33
2022-12-07T00:48:52.733Z,13.73
2022-12-07T00:51:22.341Z,13.57
2022-12-07T00:53:49.605Z,14.33
2022-12-07T00:56:30.295Z,14.13
2022-12-07T00:59:05.084Z,14.33
2022-12-07T01:01:36.151Z,13.87
2022-12-07T01:04:03.887Z,12.67
2022-12-07T01:06:31.471Z,14.13
2022-12-07T01:08:58.876Z,13.80
2022-12-07T01:11:29.531Z,14.43
2022-12-07T01:13:57.971Z,14.13
2022-12-07T01:16:26.601Z,13.93
2022-12-07T01:18:55.629Z,14.40
2022-12-07T01:21:25.242Z,14.47
2022-12-07T01:23:52.849Z,15.13
2022-12-07T01:26:22.508Z,13.97
2022-12-07T01:28:50.051Z,13.70
2022-12-07T01:31:19.921Z,13.40
2022-12-07T01:33:50.089Z,13.53
2022-12-07T01:36:35.255Z,16.53
2022-12-07T01:39:06.423Z,13.70
2022-12-07T01:41:37.806Z,14.10
2022-12-07T01:44:23.092Z,14.00
2022-12-07T01:47:01.785Z,12.50
2022-12-07T01:49:31.479Z,12.97
2022-12-07T01:52:05.064Z,13.77
2022-12-07T01:54:34.395Z,13.97
2022-12-07T01:57:02.244Z,12.30
2022-12-07T01:59:29.479Z,13.17
2022-12-07T02:01:57.101Z,12.77
2022-12-07T02:04:24.876Z,12.23
2022-12-07T02:06:53.185Z,12.57
2022-12-07T02:09:20.289Z,12.40
2022-12-07T02:11:47.147Z,12.67
2022-12-07T02:14:13.911Z,11.97
2022-12-07T02:16:59.087Z,13.30
2022-12-07T02:19:44.051Z,11.50
2022-12-07T02:22:49.916Z,12.50
2022-12-07T02:25:35.495Z,11.67
2022-12-07T02:28:20.289Z,12.07
2022-12-07T02:30:52.002Z,13.20
2022-12-07T02:33:24.866Z,13.17
2022-12-07T02:36:03.850Z,13.27
2022-12-07T02:38:48.793Z,12.90
2022-12-07T02:41:30.253Z,13.00
2022-12-07T02:44:00.949Z,14.20
2022-12-07T02:46:52.196Z,12.93
2022-12-07T02:49:20.016Z,12.47
2022-12-07T02:51:47.684Z,14.63
2022-12-07T02:54:20.408Z,14.93
2022-12-07T02:56:50.550Z,14.30
2022-12-07T03:00:09.561Z,13.60
2022-12-07T03:03:00.329Z,12.67
2022-12-07T03:05:33.003Z,12.27
2022-12-07T03:08:16.373Z,12.03
2022-12-07T03:11:05.186Z,12.33
2022-12-07T03:13:35.837Z,12.70
2022-12-07T03:16:21.752Z,12.27
2022-12-07T03:18:58.535Z,11.27
2022-12-07T03:21:34.205Z,11.33
2022-12-07T03:24:07.348Z,11.07
2022-12-07T03:26:41.844Z,12.97
2022-12-07T03:29:14.628Z,12.10
2022-12-07T03:31:44.128Z,12.47
2022-12-07T03:34:26.161Z,12.60
2022-12-07T03:37:19.454Z,13.27
2022-12-07T03:40:07.527Z,11.87
2022-12-07T03:42:36.040Z,12.30
2022-12-07T03:45:05.929Z,13.40
2022-12-07T03:47:54.378Z,13.40
2022-12-07T03:50:46.070Z,13.47
2022-12-07T03:53:19.556Z,13.10
2022-12-07T03:55:49.642Z,13.07
2022-12-07T03:58:20.618Z,12.80
2022-12-07T04:00:48.192Z,12.70
2022-12-07T04:03:15.020Z,12.73
2022-12-07T04:05:42.041Z,14.13
2022-12-07T04:08:09.327Z,13.20
2022-12-07T04:10:36.292Z,13.27
2022-12-07T04:13:03.100Z,13.10
2022-12-07T04:15:29.858Z,13.37
2022-12-07T04:17:56.581Z,13.10
2022-12-07T04:20:23.275Z,12.17
2022-12-07T04:22:50.845Z,12.77
2022-12-07T04:25:17.959Z,12.03
2022-12-07T04:27:44.620Z,13.47
2022-12-07T04:30:11.591Z,13.10
2022-12-07T04:32:38.252Z,13.00
2022-12-07T04:35:06.406Z,12.93
2022-12-07T04:37:33.225Z,11.97
2022-12-07T04:40:00.258Z,12.20
2022-12-07T04:42:27.417Z,12.80
2022-12-07T04:44:54.558Z,12.20
2022-12-07T04:47:21.597Z,12.30
2022-12-07T04:49:48.338Z,11.53
2022-12-07T04:52:15.090Z,12.50
2022-12-07T04:54:41.780Z,13.10
2022-12-07T04:57:08.708Z,12.23
2022-12-07T04:59:38.853Z,12.83
2022-12-07T05:02:09.464Z,12.83
2022-12-07T05:04:36.899Z,11.67
2022-12-07T05:07:03.552Z,12.57
2022-12-07T05:09:30.272Z,12.83
2022-12-07T05:11:56.951Z,12.40
2022-12-07T05:14:23.793Z,13.13
2022-12-07T05:16:51.898Z,13.03
2022-12-07T05:19:20.545Z,11.67
2022-12-07T05:21:47.428Z,12.27
2022-12-07T05:24:15.901Z,11.93
2022-12-07T05:26:43.152Z,11.20
2022-12-07T05:29:13.412Z,12.50
2022-12-07T05:31:40.313Z,12.13
2022-12-07T05:34:07.092Z,12.67
2022-12-07T05:36:33.809Z,12.57
2022-12-07T05:39:01.000Z,12.17
2022-12-07T05:41:46.412Z,13.47
2022-12-07T05:44:13.153Z,13.77
2022-12-07T05:46:40.284Z,13.40
2022-12-07T05:49:07.157Z,13.27
2022-12-07T05:51:33.929Z,13.37
2022-12-07T05:54:00.713Z,13.53
2022-12-07T05:56:28.149Z,12.97
2022-12-07T05:59:14.197Z,12.67
2022-12-07T06:01:41.558Z,12.47
2022-12-07T06:04:09.163Z,12.37
2022-12-07T06:06:36.459Z,12.27
2022-12-07T06:09:04.452Z,12.27
2022-12-07T06:11:49.698Z,11.77
2022-12-07T06:14:16.382Z,12.10
2022-12-07T06:16:43.189Z,11.27
2022-12-07T06:19:10.310Z,17.43
2022-12-07T06:21:37.579Z,15.53
2022-12-07T06:24:04.498Z,16.60
2022-12-07T06:26:31.137Z,12.60
2022-12-07T06:28:57.874Z,11.87
2022-12-07T06:31:24.570Z,11.97
2022-12-07T06:33:52.394Z,11.57
2022-12-07T06:36:23.968Z,9.80
2022-12-07T06:38:54.257Z,10.83
2022-12-07T06:41:22.278Z,11.03
2022-12-07T06:43:55.607Z,10.60
2022-12-07T06:46:23.011Z,9.90
2022-12-07T06:48:49.947Z,9.73
2022-12-07T06:51:17.103Z,10.83
2022-12-07T06:53:43.802Z,9.43
2022-12-07T06:56:10.752Z,10.30
2022-12-07T06:58:37.884Z,10.30
2022-12-07T07:01:13.148Z,10.27
2022-12-07T07:03:40.637Z,9.03
2022-12-07T07:06:08.810Z,10.47
2022-12-07T07:08:36.929Z,10.03
2022-12-07T07:11:04.444Z,10.53
2022-12-07T07:13:31.317Z,9.93
2022-12-07T07:15:58.048Z,10.53
2022-12-07T07:18:26.002Z,10.27
2022-12-07T07:20:53.948Z,10.27
2022-12-07T07:23:22.973Z,9.93
2022-12-07T07:25:49.965Z,9.27
2022-12-07T07:28:17.803Z,10.07
2022-12-07T07:30:44.636Z,10.03
2022-12-07T07:33:12.168Z,10.53
2022-12-07T07:35:40.323Z,9.57
2022-12-07T07:38:08.948Z,10.67
2022-12-07T07:40:37.059Z,10.67
2022-12-07T07:43:04.330Z,10.20
2022-12-07T07:45:31.206Z,9.93
2022-12-07T07:47:57.945Z,10.20
2022-12-07T07:50:25.075Z,10.60
2022-12-07T07:52:53.502Z,10.23
2022-12-07T07:55:20.439Z,9.53
2022-12-07T07:57:52.736Z,11.17
2022-12-07T08:00:22.542Z,11.30
2022-12-07T08:02:49.725Z,11.43
2022-12-07T08:05:16.952Z,11.07
2022-12-07T08:07:44.479Z,11.37
2022-12-07T08:10:13.078Z,10.77
2022-12-07T08:13:01.548Z,11.30
2022-12-07T08:15:31.403Z,10.70
2022-12-07T08:17:58.651Z,11.77
2022-12-07T08:20:25.799Z,11.27
2022-12-07T08:22:53.745Z,10.67
2022-12-07T08:25:20.570Z,11.30
2022-12-07T08:27:47.324Z,11.10
2022-12-07T08:30:14.423Z,10.80
2022-12-07T08:32:41.683Z,11.60
2022-12-07T08:35:10.679Z,11.77
2022-12-07T08:37:39.385Z,11.43
2022-12-07T08:40:08.916Z,11.93
2022-12-07T08:42:41.027Z,11.00
2022-12-07T08:45:12.303Z,11.33
2022-12-07T08:47:44.625Z,11.77
2022-12-07T08:50:13.476Z,11.53
2022-12-07T08:52:42.712Z,11.67
2022-12-07T08:55:12.486Z,11.33
2022-12-07T08:57:40.798Z,12.90
2022-12-07T09:00:10.232Z,12.53
2022-12-07T09:02:38.017Z,11.57
2022-12-07T09:05:05.588Z,12.70
2022-12-07T09:07:34.780Z,12.30
2022-12-07T09:10:02.355Z,12.80
2022-12-07T09:12:29.389Z,11.83
2022-12-07T09:14:56.329Z,11.80
2022-12-07T09:17:24.727Z,12.10
2022-12-07T09:19:51.478Z,11.03
2022-12-07T09:22:18.318Z,13.00
2022-12-07T09:24:46.549Z,12.77
2022-12-07T09:27:14.093Z,11.47
2022-12-07T09:29:40.908Z,11.47
2022-12-07T09:32:11.865Z,10.57
2022-12-07T09:34:40.214Z,12.43
2022-12-07T09:37:08.292Z,12.30
2022-12-07T09:39:35.699Z,12.60
2022-12-07T09:42:05.589Z,13.17
2022-12-07T09:44:32.857Z,11.90
2022-12-07T09:47:00.367Z,12.87
2022-12-07T09:49:31.745Z,12.30
2022-12-07T09:52:02.453Z,12.43
2022-12-07T09:54:30.673Z,12.33
2022-12-07T09:56:57.974Z,12.57
2022-12-07T09:59:26.420Z,10.90
2022-12-07T10:01:53.959Z,12.90
2022-12-07T10:04:28.115Z,11.20
2022-12-07T10:06:55.619Z,12.73
2022-12-07T10:09:24.080Z,12.00
2022-12-07T10:12:10.370Z,12.20
2022-12-07T10:15:06.891Z,12.53
2022-12-07T10:17:42.126Z,11.50
2022-12-07T10:20:29.553Z,10.50
2022-12-07T10:23:05.704Z,12.60
2022-12-07T10:25:37.365Z,11.63
2022-12-07T10:28:16.808Z,12.23
2022-12-07T10:30:52.785Z,12.60
2022-12-07T10:33:55.471Z,12.80
2022-12-07T10:36:39.819Z,13.03
2022-12-07T10:39:16.454Z,11.80
2022-12-07T10:41:57.881Z,11.20
2022-12-07T10:44:33.421Z,12.63
2022-12-07T10:47:34.337Z,12.17
2022-12-07T10:50:19.710Z,12.47
2022-12-07T10:52:54.959Z,12.50
2022-12-07T10:55:40.876Z,10.80
2022-12-07T10:58:39.576Z,11.27
2022-12-07T11:01:40.988Z,12.47
2022-12-07T11:04:36.884Z,10.83
2022-12-07T11:07:33.957Z,11.43
2022-12-07T11:10:18.956Z,12.20
2022-12-07T11:13:00.028Z,11.43
2022-12-07T11:16:14.824Z,10.63
2022-12-07T11:18:52.264Z,10.73
2022-12-07T11:21:28.155Z,10.17
2022-12-07T11:24:02.243Z,10.93
2022-12-07T11:27:07.401Z,10.90
2022-12-07T11:29:42.319Z,10.27
2022-12-07T11:32:20.720Z,9.53
2022-12-07T11:35:25.304Z,9.30
2022-12-07T11:37:59.345Z,8.97
2022-12-07T11:40:41.034Z,8.87
2022-12-07T11:43:26.911Z,9.43
2022-12-07T11:46:05.624Z,8.77
2022-12-07T11:48:42.765Z,7.83
2022-12-07T11:51:13.089Z,7.57
2022-12-07T11:53:48.757Z,7.93
2022-12-07T11:56:20.277Z,7.77
2022-12-07T11:58:50.266Z,8.27
2022-12-07T12:01:34.312Z,8.33
2022-12-07T12:04:35.212Z,7.50
2022-12-07T12:10:07.596Z,8.47
2022-12-07T12:16:15.526Z,7.87
2022-12-07T12:18:42.302Z,8.67
2022-12-07T12:21:13.334Z,8.17
2022-12-07T12:23:49.576Z,9.17
2022-12-07T12:26:27.942Z,8.87
2022-12-07T12:29:20.635Z,8.70
2022-12-07T12:32:06.043Z,9.03
2022-12-07T12:34:46.788Z,9.43
2022-12-07T12:37:35.146Z,8.90
2022-12-07T12:40:17.238Z,9.13
2022-12-07T12:42:49.844Z,9.30
2022-12-07T12:45:21.705Z,9.20
2022-12-07T12:47:58.572Z,9.63
2022-12-07T12:50:35.844Z,8.93
2022-12-07T12:53:17.569Z,8.97
2022-12-07T12:55:44.704Z,8.60
2022-12-07T12:58:20.638Z,8.37
2022-12-07T13:00:50.764Z,8.27
2022-12-07T13:03:29.762Z,9.20
2022-12-07T13:06:29.965Z,8.00
2022-12-07T13:09:00.870Z,7.87
2022-12-07T13:11:43.148Z,9.27
2022-12-07T13:14:38.404Z,7.87
2022-12-07T13:17:05.265Z,8.50
2022-12-07T13:19:44.039Z,8.10
2022-12-07T13:22:33.459Z,8.60
2022-12-07T13:25:21.995Z,8.93
2022-12-07T13:28:03.419Z,9.43
2022-12-07T13:30:31.687Z,8.97
2022-12-07T13:33:00.420Z,8.80
2022-12-07T13:35:38.650Z,8.47
2022-12-07T13:38:16.362Z,8.73
2022-12-07T13:40:43.197Z,11.37
2022-12-07T13:43:16.689Z,8.43
2022-12-07T13:45:49.426Z,9.00
2022-12-07T13:48:28.023Z,7.97
2022-12-07T13:50:58.459Z,8.70
2022-12-07T13:53:27.904Z,8.83
2022-12-07T13:55:56.962Z,8.00
2022-12-07T13:58:26.683Z,7.60
2022-12-07T14:00:53.720Z,6.83
2022-12-07T14:03:28.689Z,7.37
2022-12-07T14:06:29.373Z,7.93
2022-12-07T14:09:21.253Z,7.63
2022-12-07T14:11:50.297Z,7.97
2022-12-07T14:14:37.312Z,7.33
2022-12-07T14:17:14.407Z,7.63
2022-12-07T14:19:56.765Z,7.47
2022-12-07T14:22:36.239Z,7.67
2022-12-07T14:25:22.498Z,7.37
2022-12-07T14:27:53.973Z,6.80
2022-12-07T14:30:21.014Z,6.90
2022-12-07T14:32:51.874Z,6.53
2022-12-07T14:35:19.341Z,7.87
2022-12-07T14:37:49.063Z,7.40
2022-12-07T14:40:19.042Z,7.20
2022-12-07T14:42:48.263Z,8.00
2022-12-07T14:45:18.226Z,8.27
2022-12-07T14:50:37.861Z,7.70
2022-12-07T14:53:25.231Z,8.00
2022-12-07T14:55:53.668Z,7.10
2022-12-07T14:58:21.512Z,7.50
2022-12-07T15:00:48.624Z,7.43
2022-12-07T15:03:15.577Z,7.20
2022-12-07T15:05:43.578Z,6.73
2022-12-07T15:08:13.397Z,6.83
2022-12-07T15:10:42.833Z,6.90
2022-12-07T15:13:28.390Z,7.27
2022-12-07T15:15:57.423Z,7.47
2022-12-07T15:18:24.829Z,6.80
2022-12-07T15:20:52.501Z,7.37
2022-12-07T15:23:19.241Z,7.10
2022-12-07T15:25:48.554Z,6.77
2022-12-07T15:28:16.457Z,6.63
2022-12-07T15:30:45.335Z,7.43
2022-12-07T15:33:14.522Z,6.97
2022-12-07T15:35:46.472Z,7.43
2022-12-07T15:38:14.415Z,7.13
2022-12-07T15:40:42.978Z,7.33
2022-12-07T15:43:30.611Z,8.03
2022-12-07T15:46:00.439Z,7.63
2022-12-07T15:48:29.667Z,8.30
2022-12-07T15:51:07.736Z,7.27
2022-12-07T15:53:35.096Z,8.03
2022-12-07T15:56:02.875Z,7.63
2022-12-07T15:58:29.571Z,8.70
2022-12-07T16:00:56.282Z,8.47
2022-12-07T16:03:24.874Z,8.57
2022-12-07T16:05:53.016Z,8.13
2022-12-07T16:08:20.314Z,9.17
2022-12-07T16:10:47.176Z,7.83
2022-12-07T16:13:14.726Z,7.80
2022-12-07T16:15:44.240Z,8.20
2022-12-07T16:18:11.242Z,8.80
2022-12-07T16:20:37.999Z,9.03
2022-12-07T16:23:04.863Z,8.20
2022-12-07T16:25:32.122Z,8.63
2022-12-07T16:27:59.968Z,8.80
2022-12-07T16:30:27.545Z,7.87
2022-12-07T16:33:00.804Z,9.03
2022-12-07T16:35:29.830Z,8.73
2022-12-07T16:37:58.098Z,7.90
2022-12-07T16:40:24.986Z,8.07
2022-12-07T16:42:51.853Z,8.73
2022-12-07T16:45:20.921Z,8.63
2022-12-07T16:47:48.102Z,8.23
2022-12-07T16:50:14.998Z,8.30
2022-12-07T16:52:41.723Z,8.33
2022-12-07T16:55:09.953Z,8.40
2022-12-07T16:57:36.747Z,9.07
2022-12-07T17:00:05.152Z,8.00
2022-12-07T17:02:31.983Z,7.73
2022-12-07T17:05:00.551Z,7.83
2022-12-07T17:07:28.970Z,8.90
2022-12-07T17:09:55.712Z,8.90
2022-12-07T17:12:22.439Z,7.87
2022-12-07T17:15:07.784Z,8.60
2022-12-07T17:17:34.504Z,8.73
2022-12-07T17:20:01.417Z,8.43
2022-12-07T17:22:28.811Z,7.90
2022-12-07T17:24:55.649Z,8.27
2022-12-07T17:27:22.429Z,7.90
2022-12-07T17:29:49.239Z,8.43
2022-12-07T17:32:16.054Z,8.73
2022-12-07T17:34:44.119Z,8.33
2022-12-07T17:37:10.787Z,8.63
2022-12-07T17:39:37.636Z,8.03
2022-12-07T17:42:23.311Z,8.47
2022-12-07T17:44:50.056Z,9.20
2022-12-07T17:47:18.814Z,9.57
2022-12-07T17:49:47.155Z,9.70
2022-12-07T17:52:34.159Z,9.20
2022-12-07T17:55:01.249Z,9.53
2022-12-07T17:57:29.289Z,7.97
2022-12-07T17:59:56.176Z,9.43
2022-12-07T18:02:22.914Z,9.03
2022-12-07T18:04:49.887Z,9.47
2022-12-07T18:07:17.126Z,9.13
2022-12-07T18:09:45.139Z,10.13
2022-12-07T18:12:11.898Z,9.70
2022-12-07T18:14:38.604Z,9.43
2022-12-07T18:17:05.668Z,9.83
2022-12-07T18:19:33.442Z,9.10
2022-12-07T18:22:01.496Z,8.53
2022-12-07T18:24:36.248Z,8.87
2022-12-07T18:27:04.780Z,8.33
2022-12-07T18:29:31.501Z,9.50
2022-12-07T18:31:59.698Z,9.37
2022-12-07T18:34:29.682Z,8.97
2022-12-07T18:36:56.486Z,8.87
2022-12-07T18:39:25.215Z,8.77
2022-12-07T18:41:55.891Z,9.53
2022-12-07T18:44:22.803Z,9.73
2022-12-07T18:46:49.946Z,9.70
2022-12-07T18:49:16.715Z,8.83
2022-12-07T18:51:45.696Z,10.27
2022-12-07T18:54:12.458Z,9.60
2022-12-07T18:56:39.192Z,10.23
2022-12-07T18:59:25.521Z,10.13
2022-12-07T19:01:54.839Z,9.53
2022-12-07T19:04:22.210Z,9.53
2022-12-07T19:06:49.760Z,9.10
2022-12-07T19:09:17.811Z,9.63
2022-12-07T19:11:52.256Z,9.47
2022-12-07T19:14:27.084Z,9.50
2022-12-07T19:16:56.410Z,10.10
2022-12-07T19:19:29.705Z,9.80
2022-12-07T19:21:56.466Z,8.97
2022-12-07T19:24:24.054Z,9.57
2022-12-07T19:26:52.201Z,10.03
2022-12-07T19:29:19.455Z,9.77
2022-12-07T19:31:46.411Z,9.63
2022-12-07T19:34:16.270Z,10.10
2022-12-07T19:36:44.564Z,9.70
2022-12-07T19:39:15.093Z,10.53
2022-12-07T19:41:44.913Z,8.73
2022-12-07T19:44:16.264Z,8.57
2022-12-07T19:46:46.742Z,8.30
2022-12-07T19:49:16.235Z,9.87
2022-12-07T19:51:48.864Z,9.67
2022-12-07T19:54:19.314Z,9.83
2022-12-07T19:56:47.228Z,9.17
2022-12-07T19:59:16.976Z,10.20
2022-12-07T20:01:45.064Z,9.80
2022-12-07T20:04:16.579Z,9.50
2022-12-07T20:06:45.344Z,9.73
2022-12-07T20:09:12.420Z,9.70
2022-12-07T20:11:58.039Z,9.43
2022-12-07T20:14:25.050Z,9.60
2022-12-07T20:16:52.228Z,11.30
2022-12-07T20:19:19.510Z,10.83
2022-12-07T20:21:47.332Z,11.27
2022-12-07T20:24:18.563Z,9.67
2022-12-07T20:26:48.788Z,14.17
2022-12-07T20:29:18.926Z,14.87
2022-12-07T20:31:48.206Z,12.20
2022-12-07T20:34:16.176Z,11.97
2022-12-07T20:36:43.276Z,11.47
2022-12-07T20:39:10.453Z,10.67
2022-12-07T20:41:56.779Z,10.53
2022-12-07T20:44:23.641Z,10.53
2022-12-07T20:46:50.602Z,10.17
2022-12-07T20:49:18.583Z,9.97
2022-12-07T20:51:46.913Z,9.73
2022-12-07T20:54:15.024Z,9.57
2022-12-07T20:56:42.011Z,9.13
2022-12-07T20:59:13.851Z,9.67
2022-12-07T21:01:42.754Z,8.80
2022-12-07T21:04:12.122Z,9.90
2022-12-07T21:06:39.281Z,9.67
2022-12-07T21:09:06.452Z,8.87
2022-12-07T21:11:33.210Z,10.30
2022-12-07T21:14:01.532Z,10.07
2022-12-07T21:16:31.616Z,9.60
2022-12-07T21:19:04.263Z,9.07
2022-12-07T21:21:32.999Z,9.17
2022-12-07T21:24:03.011Z,9.83
2022-12-07T21:26:36.417Z,9.57
2022-12-07T21:29:07.506Z,9.37
2022-12-07T21:31:35.304Z,9.50
2022-12-07T21:34:05.504Z,9.77
2022-12-07T21:36:32.777Z,10.00
2022-12-07T21:39:00.651Z,10.10
2022-12-07T21:41:34.443Z,9.43
2022-12-07T21:44:05.420Z,9.40
2022-12-07T21:46:34.608Z,9.67
2022-12-07T21:49:05.776Z,9.83
2022-12-07T21:51:32.954Z,9.90
2022-12-07T21:54:01.987Z,10.20
2022-12-07T21:56:32.621Z,10.43
2022-12-07T21:59:02.251Z,9.73
2022-12-07T22:01:35.810Z,10.23
2022-12-07T22:04:04.531Z,9.10
2022-12-07T22:06:33.847Z,9.77
2022-12-07T22:09:02.458Z,10.37
2022-12-07T22:11:29.569Z,9.07
2022-12-07T22:14:17.032Z,10.80
2022-12-07T22:16:43.848Z,9.73
2022-12-07T22:19:10.700Z,10.60
2022-12-07T22:21:37.540Z,10.10
2022-12-07T22:24:05.441Z,8.80
2022-12-07T22:26:32.645Z,10.17
2022-12-07T22:28:59.502Z,10.47
2022-12-07T22:31:26.554Z,10.43
2022-12-07T22:33:53.414Z,10.67
2022-12-07T22:36:20.735Z,10.47
2022-12-07T22:38:48.034Z,10.40
2022-12-07T22:41:26.934Z,10.73
2022-12-07T22:43:54.591Z,10.27
2022-12-07T22:46:22.260Z,11.27
2022-12-07T22:48:49.766Z,10.67
2022-12-07T22:51:26.941Z,10.87
2022-12-07T22:53:54.836Z,11.13
2022-12-07T22:56:22.801Z,10.37
2022-12-07T22:58:50.219Z,10.70
2022-12-07T23:01:19.008Z,9.87
2022-12-07T23:03:46.562Z,9.67
2022-12-07T23:06:23.196Z,10.77
2022-12-07T23:08:50.309Z,10.40
2022-12-07T23:11:42.647Z,10.27
2022-12-07T23:14:12.633Z,10.20
2022-12-07T23:16:40.167Z,11.33
2022-12-07T23:19:07.114Z,10.23
2022-12-07T23:21:34.201Z,9.97
2022-12-07T23:24:01.600Z,10.30
2022-12-07T23:26:28.565Z,10.67
2022-12-07T23:28:55.326Z,10.77
2022-12-07T23:31:22.463Z,11.10
2022-12-07T23:33:49.290Z,11.47
2022-12-07T23:36:25.606Z,10.70
2022-12-07T23:38:54.060Z,10.40
2022-12-07T23:41:23.613Z,10.57
2022-12-07T23:43:50.693Z,10.50
2022-12-07T23:46:20.689Z,11.30
2022-12-07T23:48:49.836Z,12.20
2022-12-07T23:51:19.204Z,11.33
2022-12-07T23:53:48.957Z,11.00
2022-12-07T23:56:24.536Z,10.87
2022-12-07T23:58:52.138Z,11.03
